Time;durP1;ratioP1;P1;durP2;ratioP2;P2;SDS_P1;SDS_P2;PMS_P1;PMS_P2;Temp;Humidity;BMP_temperature;BMP_pressure;BME280_temperature;BME280_humidity;BME280_pressure;Samples;Min_cycle;Max_cycle;Signal;HPM_P1;HPM_P2
2021/10/30 00:02:08;;;;;;;210.80;70.15;;;;;;;1.08;100.00;102616.31;1630304;85;21020;-83
2021/10/30 00:04:34;;;;;;;240.77;75.25;;;;;;;1.08;100.00;102614.98;1629799;85;21088;-84
2021/10/30 00:07:00;;;;;;;229.03;75.72;;;;;;;1.05;100.00;102610.80;1645780;85;20914;-83
2021/10/30 00:09:26;;;;;;;225.38;75.60;;;;;;;1.04;100.00;102617.59;1642998;85;20891;-83
2021/10/30 00:11:52;;;;;;;257.00;80.17;;;;;;;1.01;100.00;102613.91;1645732;85;21096;-82
2021/10/30 00:14:18;;;;;;;220.88;68.17;;;;;;;1.01;100.00;102607.27;1645687;85;21538;-83
2021/10/30 00:16:44;;;;;;;214.72;69.75;;;;;;;0.97;100.00;102609.39;1645915;85;21018;-82
2021/10/30 00:19:10;;;;;;;209.18;71.77;;;;;;;0.93;100.00;102609.32;1645793;85;20906;-83
2021/10/30 00:21:36;;;;;;;215.65;68.80;;;;;;;0.92;100.00;102614.30;1646056;85;21156;-82
2021/10/30 00:24:02;;;;;;;205.67;72.35;;;;;;;0.89;100.00;102611.44;1645796;85;21977;-82
2021/10/30 00:26:28;;;;;;;215.77;66.57;;;;;;;0.88;100.00;102610.24;1645852;85;20918;-81
2021/10/30 00:28:54;;;;;;;210.45;65.80;;;;;;;0.86;100.00;102608.25;1645718;85;21083;-85
2021/10/30 00:31:20;;;;;;;208.13;67.70;;;;;;;0.83;100.00;102611.19;1645975;87;20903;-81
2021/10/30 00:33:46;;;;;;;203.12;67.62;;;;;;;0.78;100.00;102608.96;1645984;85;20911;-82
2021/10/30 00:36:11;;;;;;;213.15;67.67;;;;;;;0.75;100.00;102613.23;1645864;85;21795;-81
2021/10/30 00:38:38;;;;;;;186.90;60.00;;;;;;;0.72;100.00;102614.02;1645617;85;20989;-82
2021/10/30 00:41:06;;;;;;;166.37;55.85;;;;;;;0.66;100.00;102610.95;1646001;85;20986;-82
2021/10/30 00:43:33;;;;;;;156.10;56.73;;;;;;;0.60;100.00;102620.82;1647792;85;21096;-82
2021/10/30 00:45:59;;;;;;;167.85;60.67;;;;;;;0.54;100.00;102616.09;1657232;85;21021;-78
2021/10/30 00:48:25;;;;;;;165.07;58.25;;;;;;;0.53;100.00;102622.39;1657188;85;21116;-82
2021/10/30 00:50:57;;;;;;;186.35;64.07;;;;;;;0.51;100.00;102621.69;1657174;85;21600;-82
2021/10/30 00:53:30;;;;;;;212.15;67.05;;;;;;;0.53;100.00;102620.20;1657266;85;21466;-82
2021/10/30 00:56:01;;;;;;;211.97;68.37;;;;;;;0.52;100.00;102612.73;1624687;87;21547;-83
2021/10/30 00:58:31;;;;;;;181.07;59.00;;;;;;;0.50;100.00;102617.37;1572452;91;21065;-83
2021/10/30 01:00:58;;;;;;;207.20;62.08;;;;;;;0.47;100.00;102612.81;1572576;91;22021;-80
2021/10/30 01:03:24;;;;;;;173.62;59.95;;;;;;;0.43;100.00;102613.11;1572300;91;21034;-82
2021/10/30 01:05:50;;;;;;;155.78;56.98;;;;;;;0.42;100.00;102610.61;1572482;91;21537;-82
2021/10/30 01:08:19;;;;;;;162.70;59.25;;;;;;;0.38;100.00;102611.86;1496377;95;20923;-82
2021/10/30 01:10:47;;;;;;;167.68;60.52;;;;;;;0.31;100.00;102614.74;1496477;95;21650;-82
2021/10/30 01:13:12;;;;;;;181.43;67.72;;;;;;;0.26;100.00;102609.85;1496218;94;22069;-82
2021/10/30 01:15:38;;;;;;;181.00;66.30;;;;;;;0.22;100.00;102607.15;1493598;95;20949;-82
2021/10/30 01:18:07;;;;;;;170.22;63.28;;;;;;;0.18;100.00;102612.40;1494289;95;20994;-82
2021/10/30 01:20:34;;;;;;;161.52;61.63;;;;;;;0.13;100.00;102615.95;1493202;95;21151;-83
2021/10/30 01:23:02;;;;;;;160.50;63.05;;;;;;;0.06;100.00;102613.50;1492378;96;21132;-82
2021/10/30 01:25:29;;;;;;;157.85;61.45;;;;;;;-0.02;100.00;102615.55;1492645;96;21077;-86
2021/10/30 01:27:58;;;;;;;188.32;65.15;;;;;;;-0.09;100.00;102619.70;1492335;96;21112;-82
2021/10/30 01:30:24;;;;;;;180.42;67.17;;;;;;;-0.15;100.00;102625.56;1492463;96;21140;-82
2021/10/30 01:33:00;;;;;;;173.45;66.97;;;;;;;-0.23;100.00;102622.30;1492257;96;21108;-82
2021/10/30 01:35:33;;;;;;;219.95;70.40;;;;;;;-0.31;100.00;102620.83;1492378;96;21096;-82
2021/10/30 01:38:01;;;;;;;228.90;74.53;;;;;;;-0.33;100.00;102628.06;1492845;96;21436;-81
2021/10/30 01:40:28;;;;;;;235.90;75.17;;;;;;;-0.37;100.00;102622.21;1566961;91;21128;-82
2021/10/30 01:42:57;;;;;;;234.18;77.20;;;;;;;-0.40;100.00;102628.27;1572623;91;21003;-83
2021/10/30 01:45:24;;;;;;;229.00;76.37;;;;;;;-0.47;100.00;102630.15;1572367;91;21558;-82
2021/10/30 01:47:51;;;;;;;185.00;66.20;;;;;;;-0.50;100.00;102636.18;1572591;91;20994;-83
2021/10/30 01:50:18;;;;;;;202.28;71.82;;;;;;;-0.52;100.00;102631.03;1572297;90;22098;-82
2021/10/30 01:52:44;;;;;;;203.67;69.60;;;;;;;-0.50;100.00;102634.39;1572056;90;21656;-83
2021/10/30 01:55:13;;;;;;;179.97;67.55;;;;;;;-0.47;100.00;102632.80;1596618;86;21063;-82
2021/10/30 01:57:39;;;;;;;167.93;66.80;;;;;;;-0.43;100.00;102636.00;1630276;86;22270;-83
2021/10/30 02:00:08;;;;;;;169.30;65.67;;;;;;;-0.41;100.00;102639.82;1630441;86;21072;-82
2021/10/30 02:02:34;;;;;;;172.02;66.02;;;;;;;-0.42;100.00;102635.02;1630390;88;21191;-82
2021/10/30 02:05:03;;;;;;;167.80;65.42;;;;;;;-0.42;100.00;102635.52;1630650;86;21221;-82
2021/10/30 02:07:28;;;;;;;163.52;61.40;;;;;;;-0.43;100.00;102633.84;1630084;86;21080;-87
2021/10/30 02:09:54;;;;;;;160.65;61.58;;;;;;;-0.46;100.00;102630.98;1630613;86;20981;-82
2021/10/30 02:12:20;;;;;;;153.95;60.55;;;;;;;-0.46;100.00;102638.92;1630338;86;20934;-80
2021/10/30 02:14:46;;;;;;;162.37;63.65;;;;;;;-0.48;100.00;102637.72;1630569;86;21222;-82
2021/10/30 02:17:12;;;;;;;163.65;63.48;;;;;;;-0.51;100.00;102641.97;1630296;86;21012;-82
2021/10/30 02:19:38;;;;;;;169.82;63.75;;;;;;;-0.55;100.00;102641.07;1630555;86;20953;-82
2021/10/30 02:22:04;;;;;;;173.07;67.17;;;;;;;-0.60;100.00;102645.92;1630485;85;20929;-82
2021/10/30 02:24:31;;;;;;;170.50;67.22;;;;;;;-0.65;100.00;102644.99;1630803;86;21104;-84
2021/10/30 02:26:57;;;;;;;172.53;67.50;;;;;;;-0.67;100.00;102652.75;1630199;86;21177;-82
2021/10/30 02:29:23;;;;;;;178.85;67.92;;;;;;;-0.71;100.00;102652.16;1627616;86;21591;-82
2021/10/30 02:31:48;;;;;;;175.60;66.05;;;;;;;-0.74;100.00;102654.58;1630403;86;21017;-82
2021/10/30 02:34:14;;;;;;;174.87;65.75;;;;;;;-0.77;100.00;102653.52;1630590;86;20989;-82
2021/10/30 02:36:40;;;;;;;153.97;61.02;;;;;;;-0.79;100.00;102655.98;1630576;86;21005;-82
2021/10/30 02:39:06;;;;;;;174.68;66.15;;;;;;;-0.81;100.00;102657.91;1633569;85;21747;-83
2021/10/30 02:41:32;;;;;;;186.73;68.12;;;;;;;-0.88;100.00;102655.43;1630365;86;21068;-82
2021/10/30 02:43:58;;;;;;;181.63;65.90;;;;;;;-0.92;100.00;102661.48;1630441;86;20976;-82
2021/10/30 02:46:24;;;;;;;172.80;68.10;;;;;;;-0.98;100.00;102660.20;1630492;86;21000;-82
2021/10/30 02:48:49;;;;;;;170.20;64.92;;;;;;;-1.02;100.00;102662.77;1630720;86;21001;-82
2021/10/30 02:51:15;;;;;;;168.72;65.52;;;;;;;-1.05;100.00;102669.66;1630426;87;21141;-82
2021/10/30 02:53:41;;;;;;;163.92;61.85;;;;;;;-1.06;100.00;102671.95;1630474;86;21632;-82
2021/10/30 02:56:07;;;;;;;166.73;64.77;;;;;;;-1.08;100.00;102670.41;1630544;86;20933;-82
2021/10/30 02:58:33;;;;;;;154.97;64.40;;;;;;;-1.11;100.00;102675.47;1630445;85;20905;-82
2021/10/30 03:00:59;;;;;;;149.12;59.95;;;;;;;-1.09;100.00;102672.68;1630456;86;21032;-82
2021/10/30 03:03:25;;;;;;;143.45;58.08;;;;;;;-1.09;100.00;102682.77;1630584;87;21148;-82
2021/10/30 03:05:50;;;;;;;138.82;55.63;;;;;;;-1.11;100.00;102682.09;1630363;86;21071;-82
2021/10/30 03:08:16;;;;;;;144.13;56.45;;;;;;;-1.12;100.00;102677.75;1630526;86;21029;-82
2021/10/30 03:10:42;;;;;;;140.20;57.38;;;;;;;-1.15;100.00;102684.63;1630588;86;20981;-82
2021/10/30 03:13:10;;;;;;;137.07;55.90;;;;;;;-1.20;100.00;102686.84;1630421;86;21068;-82
2021/10/30 03:15:36;;;;;;;130.37;52.65;;;;;;;-1.20;100.00;102685.52;1611917;87;21774;-82
2021/10/30 03:18:02;;;;;;;131.57;52.65;;;;;;;-1.19;100.00;102691.98;1630317;86;20941;-82
2021/10/30 03:20:28;;;;;;;126.40;51.60;;;;;;;-1.22;100.00;102685.63;1630528;86;20936;-82
2021/10/30 03:22:54;;;;;;;127.27;51.95;;;;;;;-1.23;100.00;102693.72;1630554;86;21513;-82
2021/10/30 03:25:20;;;;;;;128.30;52.33;;;;;;;-1.26;100.00;102696.13;1630585;88;21075;-82
2021/10/30 03:27:46;;;;;;;134.40;53.17;;;;;;;-1.29;100.00;102700.36;1630417;86;21176;-84
2021/10/30 03:30:12;;;;;;;127.35;51.10;;;;;;;-1.35;100.00;102694.73;1627133;86;21067;-83
2021/10/30 03:32:38;;;;;;;115.45;50.08;;;;;;;-1.40;100.00;102698.61;1630587;86;21060;-83
2021/10/30 03:35:05;;;;;;;128.10;54.38;;;;;;;-1.46;100.00;102693.00;1630814;87;20984;-82
2021/10/30 03:37:34;;;;;;;128.60;53.10;;;;;;;-1.52;100.00;102699.64;1630661;86;21080;-82
2021/10/30 03:39:59;;;;;;;141.65;55.28;;;;;;;-1.55;100.00;102693.78;1630228;86;21087;-83
2021/10/30 03:42:25;;;;;;;146.40;55.88;;;;;;;-1.56;100.00;102685.47;1630532;86;20910;-80
2021/10/30 03:44:50;;;;;;;147.07;56.15;;;;;;;-1.57;100.00;102682.48;1630510;86;21055;-83
2021/10/30 03:47:17;;;;;;;145.40;56.50;;;;;;;-1.55;100.00;102680.56;1630673;86;20901;-82
2021/10/30 03:49:44;;;;;;;145.80;57.75;;;;;;;-1.51;100.00;102684.61;1630386;86;21119;-82
2021/10/30 03:52:09;;;;;;;156.72;62.95;;;;;;;-1.48;100.00;102688.32;1630523;85;21185;-82
2021/10/30 03:54:35;;;;;;;154.18;63.15;;;;;;;-1.46;100.00;102692.52;1630509;86;21084;-82
2021/10/30 03:57:02;;;;;;;155.05;60.80;;;;;;;-1.44;100.00;102697.20;1630554;87;20953;-82
2021/10/30 03:59:28;;;;;;;173.13;60.50;;;;;;;-1.44;100.00;102691.05;1630713;86;21617;-82
2021/10/30 04:01:54;;;;;;;159.27;60.73;;;;;;;-1.44;100.00;102698.52;1630719;87;21087;-82
2021/10/30 04:04:20;;;;;;;149.87;57.90;;;;;;;-1.45;100.00;102699.95;1630821;86;21179;-82
2021/10/30 04:06:46;;;;;;;160.28;59.33;;;;;;;-1.44;100.00;102705.59;1630320;86;21072;-82
2021/10/30 04:09:13;;;;;;;140.47;56.25;;;;;;;-1.44;100.00;102704.27;1612118;87;21013;-82
2021/10/30 04:11:38;;;;;;;144.25;56.88;;;;;;;-1.45;100.00;102708.73;1630444;86;21108;-81
2021/10/30 04:14:04;;;;;;;151.65;57.05;;;;;;;-1.46;100.00;102701.77;1630422;86;21017;-83
2021/10/30 04:16:34;;;;;;;145.43;54.42;;;;;;;-1.43;100.00;102700.68;1630568;86;21682;-82
2021/10/30 04:18:58;;;;;;;149.62;56.42;;;;;;;-1.41;100.00;102708.01;1630176;86;21052;-82
2021/10/30 04:21:25;;;;;;;147.85;57.60;;;;;;;-1.38;100.00;102704.62;1630564;86;21084;-80
2021/10/30 04:23:51;;;;;;;139.88;55.38;;;;;;;-1.32;100.00;102703.72;1630305;86;21083;-82
2021/10/30 04:26:17;;;;;;;137.80;55.43;;;;;;;-1.28;100.00;102707.31;1630433;86;20910;-85
2021/10/30 04:28:43;;;;;;;138.47;51.98;;;;;;;-1.23;100.00;102712.23;1630395;86;21345;-84
2021/10/30 04:31:10;;;;;;;135.20;51.58;;;;;;;-1.17;100.00;102711.71;1630361;86;20929;-83
2021/10/30 04:33:42;;;;;;;134.67;50.10;;;;;;;-1.12;100.00;102715.27;1630043;86;21127;-83
2021/10/30 04:36:14;;;;;;;138.25;51.20;;;;;;;-1.07;100.00;102713.08;1630647;87;21139;-82
2021/10/30 04:38:32;;;;;;;132.97;48.63;;;;;;;-1.02;100.00;102720.98;1630580;86;21065;-82
2021/10/30 04:40:58;;;;;;;131.75;48.70;;;;;;;-0.98;100.00;102718.42;1630390;86;21171;-82
2021/10/30 04:43:24;;;;;;;135.82;49.77;;;;;;;-0.90;100.00;102716.94;1630493;86;20933;-82
2021/10/30 04:45:50;;;;;;;123.02;46.60;;;;;;;-0.82;100.00;102715.31;1624760;86;21747;-83
2021/10/30 04:48:16;;;;;;;126.60;46.30;;;;;;;-0.73;100.00;102721.63;1621407;87;20891;-86
2021/10/30 04:50:43;;;;;;;126.02;45.85;;;;;;;-0.67;100.00;102721.09;1621430;87;21057;-83
2021/10/30 04:53:09;;;;;;;129.87;44.90;;;;;;;-0.61;100.00;102721.87;1621318;87;21093;-79
2021/10/30 04:55:35;;;;;;;118.93;42.33;;;;;;;-0.53;100.00;102718.08;1621102;87;21109;-82
2021/10/30 04:58:02;;;;;;;146.77;51.35;;;;;;;-0.45;100.00;102724.02;1618646;87;21017;-82
2021/10/30 05:00:28;;;;;;;119.45;43.63;;;;;;;-0.34;100.00;102718.62;1621203;87;21168;-85
2021/10/30 05:02:54;;;;;;;129.53;45.28;;;;;;;-0.23;100.00;102724.30;1621357;87;21056;-82
2021/10/30 05:05:20;;;;;;;127.95;43.42;;;;;;;-0.12;100.00;102725.52;1621177;87;21132;-83
2021/10/30 05:07:46;;;;;;;124.53;41.65;;;;;;;0.02;100.00;102725.59;1623697;87;21048;-83
2021/10/30 05:10:13;;;;;;;120.28;40.78;;;;;;;0.19;100.00;102737.34;1640038;85;20948;-83
2021/10/30 05:12:39;;;;;;;118.35;41.42;;;;;;;0.34;100.00;102731.13;1642606;85;21020;-83
2021/10/30 05:15:05;;;;;;;120.08;41.98;;;;;;;0.54;100.00;102728.00;1619293;86;21556;-83
2021/10/30 05:17:31;;;;;;;125.75;42.70;;;;;;;0.76;100.00;102723.69;1643257;85;21117;-82
2021/10/30 05:19:57;;;;;;;120.33;42.75;;;;;;;1.04;100.00;102730.42;1639297;85;20898;-84
2021/10/30 05:22:23;;;;;;;126.50;46.92;;;;;;;1.17;100.00;102732.75;1644974;85;21687;-83
2021/10/30 05:24:49;;;;;;;122.90;43.10;;;;;;;1.28;100.00;102732.09;1643333;85;20900;-82
2021/10/30 05:27:16;;;;;;;122.10;42.40;;;;;;;1.38;100.00;102731.20;1644069;85;20950;-82
2021/10/30 05:29:42;;;;;;;110.88;41.58;;;;;;;1.45;100.00;102735.80;1640035;86;21164;-81
2021/10/30 05:32:08;;;;;;;106.70;38.33;;;;;;;1.57;100.00;102731.97;1642734;85;21080;-83
2021/10/30 05:34:34;;;;;;;106.80;37.67;;;;;;;1.72;100.00;102736.30;1644115;85;21088;-82
2021/10/30 05:37:00;;;;;;;107.70;38.02;;;;;;;2.04;100.00;102734.49;1640421;85;21171;-83
2021/10/30 05:39:26;;;;;;;104.07;36.65;;;;;;;2.69;100.00;102729.42;1643360;85;21040;-84
2021/10/30 05:41:52;;;;;;;91.57;33.80;;;;;;;3.89;100.00;102733.89;1644038;85;21176;-84
2021/10/30 05:44:18;;;;;;;89.45;33.67;;;;;;;5.28;100.00;102729.86;1644430;87;21097;-85
2021/10/30 05:46:44;;;;;;;80.55;33.35;;;;;;;6.50;100.00;102736.91;1652363;85;21079;-87
2021/10/30 05:49:11;;;;;;;83.90;31.95;;;;;;;7.29;100.00;102735.98;1651959;85;21012;-82
2021/10/30 05:51:38;;;;;;;87.30;33.88;;;;;;;8.27;100.00;102739.25;1634798;86;21060;-86
2021/10/30 05:54:04;;;;;;;84.40;32.03;;;;;;;9.26;100.00;102735.19;1653671;85;21306;-87
2021/10/30 05:56:31;;;;;;;84.85;33.28;;;;;;;9.93;100.00;102735.80;1655250;86;21122;-86
2021/10/30 05:58:57;;;;;;;87.00;32.60;;;;;;;10.63;100.00;102732.85;1645895;85;21111;-86
2021/10/30 06:01:23;;;;;;;85.60;33.28;;;;;;;11.24;100.00;102732.58;1653869;85;21456;-86
2021/10/30 06:03:49;;;;;;;78.72;32.40;;;;;;;11.93;100.00;102737.02;1651426;85;20941;-85
2021/10/30 06:06:15;;;;;;;79.12;32.80;;;;;;;12.75;100.00;102739.26;1656956;85;21065;-86
2021/10/30 06:08:41;;;;;;;82.08;33.23;;;;;;;13.31;100.00;102738.31;1657095;85;20973;-86
2021/10/30 06:11:07;;;;;;;75.50;32.17;;;;;;;13.61;100.00;102732.95;1656174;85;21016;-87
2021/10/30 06:13:33;;;;;;;77.60;31.87;;;;;;;14.35;100.00;102730.06;1653819;85;21055;-84
2021/10/30 06:15:59;;;;;;;71.77;31.23;;;;;;;15.05;99.94;102731.22;1648581;85;21188;-84
2021/10/30 06:18:25;;;;;;;76.37;32.60;;;;;;;15.86;92.51;102738.94;1648614;85;21018;-86
2021/10/30 06:20:51;;;;;;;69.27;31.87;;;;;;;16.29;80.32;102742.97;1651740;85;21038;-84
2021/10/30 06:23:17;;;;;;;75.62;32.85;;;;;;;16.55;68.74;102749.13;1651049;85;21126;-86
2021/10/30 06:25:45;;;;;;;68.50;32.05;;;;;;;16.79;68.43;102748.48;1655049;86;20945;-85
2021/10/30 06:28:11;;;;;;;69.10;31.02;;;;;;;16.83;62.00;102752.08;1656873;85;21509;-85
2021/10/30 06:30:38;;;;;;;72.20;32.40;;;;;;;17.30;63.11;102751.12;1657510;85;21155;-88
2021/10/30 06:33:03;;;;;;;64.03;29.65;;;;;;;17.39;57.00;102754.23;1657163;85;21244;-87
2021/10/30 06:35:29;;;;;;;66.50;30.72;;;;;;;17.73;58.35;102749.45;1657331;85;21785;-87
2021/10/30 06:37:56;;;;;;;71.90;31.10;;;;;;;18.33;56.50;102746.30;1666135;83;20992;-89
2021/10/30 06:40:22;;;;;;;74.12;31.10;;;;;;;18.65;52.76;102744.94;1659314;85;21016;-91
2021/10/30 06:42:48;;;;;;;66.50;31.55;;;;;;;19.21;54.64;102749.42;1656866;84;21917;-91
2021/10/30 06:45:14;;;;;;;74.30;32.00;;;;;;;19.98;50.78;102746.19;1656018;83;21064;-90
2021/10/30 06:47:40;;;;;;;72.32;32.38;;;;;;;19.86;48.25;102747.25;1639190;85;21125;-86
2021/10/30 06:50:08;;;;;;;70.78;32.63;;;;;;;19.79;47.98;102743.92;1613929;87;21063;-86
2021/10/30 06:52:38;;;;;;;66.28;31.25;;;;;;;20.25;48.81;102746.77;1638510;86;21139;-86
2021/10/30 06:55:08;;;;;;;66.55;32.17;;;;;;;20.88;47.74;102750.59;1638266;86;21241;-85
2021/10/30 06:57:35;;;;;;;61.85;32.75;;;;;;;21.21;44.74;102747.80;1538839;91;21698;-82
2021/10/30 07:00:06;;;;;;;62.35;30.15;;;;;;;20.98;46.77;102749.22;1553962;90;21087;-84
2021/10/30 07:02:32;;;;;;;73.17;34.08;;;;;;;22.03;46.73;102740.56;1540393;91;21099;-83
2021/10/30 07:05:01;;;;;;;63.02;32.78;;;;;;;22.73;43.65;102740.83;1539747;91;21603;-85
2021/10/30 07:07:27;;;;;;;71.60;32.55;;;;;;;22.68;41.51;102737.59;1536591;91;21119;-82
2021/10/30 07:09:59;;;;;;;64.45;30.80;;;;;;;22.13;41.70;102736.92;1540496;91;21007;-83
2021/10/30 07:12:21;;;;;;;68.47;33.65;;;;;;;22.68;42.53;102736.22;1537311;91;21164;-82
2021/10/30 07:14:48;;;;;;;60.20;30.92;;;;;;;23.08;42.00;102737.73;1538553;91;20913;-84
2021/10/30 07:17:14;;;;;;;62.08;31.27;;;;;;;23.85;41.33;102734.59;1538931;91;21115;-85
2021/10/30 07:19:40;;;;;;;71.50;33.10;;;;;;;24.66;40.68;102740.19;1536258;91;21310;-84
2021/10/30 07:22:05;;;;;;;67.35;31.40;;;;;;;24.96;38.54;102737.16;1539597;91;21667;-85
2021/10/30 07:24:31;;;;;;;70.52;34.65;;;;;;;25.15;39.78;102738.74;1540077;91;21058;-86
2021/10/30 07:26:57;;;;;;;76.10;32.85;;;;;;;25.43;36.63;102727.67;1540691;91;21595;-83
2021/10/30 07:29:23;;;;;;;64.15;31.42;;;;;;;25.57;38.58;102729.03;1540589;91;20953;-83
2021/10/30 07:31:49;;;;;;;62.10;32.17;;;;;;;25.92;37.10;102730.20;1540262;91;21138;-86
2021/10/30 07:34:14;;;;;;;63.80;32.35;;;;;;;26.70;37.56;102732.11;1539803;91;21083;-83
2021/10/30 07:36:40;;;;;;;54.55;29.72;;;;;;;27.20;35.54;102726.88;1540497;93;21032;-85
2021/10/30 07:39:06;;;;;;;58.75;29.25;;;;;;;27.58;35.35;102732.66;1541940;91;21763;-82
2021/10/30 07:41:32;;;;;;;59.55;30.05;;;;;;;28.05;33.67;102719.00;1541654;91;20932;-82
2021/10/30 07:43:58;;;;;;;66.35;29.95;;;;;;;27.95;31.89;102722.13;1522149;91;21045;-80
2021/10/30 07:46:25;;;;;;;63.98;29.52;;;;;;;28.13;34.48;102723.50;1543782;90;21095;-84
2021/10/30 07:48:53;;;;;;;68.05;29.20;;;;;;;28.91;32.36;102720.52;1552033;90;21539;-85
2021/10/30 07:51:21;;;;;;;85.22;32.33;;;;;;;29.23;32.26;102716.28;1551351;91;21211;-83
2021/10/30 07:53:47;;;;;;;67.85;31.73;;;;;;;29.22;30.04;102722.19;1588253;85;21013;-85
2021/10/30 07:56:15;;;;;;;66.37;29.90;;;;;;;27.90;30.80;102718.13;1638134;85;21150;-82
2021/10/30 07:58:43;;;;;;;69.00;31.02;;;;;;;28.47;31.80;102719.85;1653153;85;21041;-84
2021/10/30 08:01:10;;;;;;;64.75;30.62;;;;;;;28.79;30.94;102719.02;1615648;87;21528;-84
2021/10/30 08:03:36;;;;;;;74.37;30.05;;;;;;;28.98;30.88;102716.08;1615417;87;21177;-84
2021/10/30 08:06:02;;;;;;;72.32;30.05;;;;;;;29.53;29.64;102711.53;1615798;87;21006;-85
2021/10/30 08:08:32;;;;;;;78.97;30.27;;;;;;;29.23;30.08;102708.53;1610735;87;21049;-84
2021/10/30 08:11:00;;;;;;;64.27;30.30;;;;;;;29.23;30.08;102708.53;1615632;87;21073;-85
2021/10/30 08:13:27;;;;;;;73.02;32.45;;;;;;;29.83;29.81;102713.68;1615345;87;21041;-85
2021/10/30 08:15:53;;;;;;;75.12;30.68;;;;;;;30.79;29.12;102697.38;1615449;87;21137;-85
2021/10/30 08:18:19;;;;;;;77.42;31.85;;;;;;;30.79;29.12;102697.38;1615896;87;20957;-83
2021/10/30 08:20:46;;;;;;;61.02;27.95;;;;;;;31.29;27.48;102692.00;1615440;88;21093;-83
2021/10/30 08:23:12;;;;;;;66.37;28.85;;;;;;;30.17;27.14;102699.78;1615782;87;21629;-85
2021/10/30 08:25:38;;;;;;;67.37;29.23;;;;;;;27.66;28.85;102701.16;1615722;87;21017;-87
2021/10/30 08:28:04;;;;;;;77.62;28.85;;;;;;;25.49;30.73;102711.24;1615292;87;21188;-87
2021/10/30 08:30:30;;;;;;;71.77;27.58;;;;;;;23.89;32.83;102704.79;1615715;88;21001;-84
2021/10/30 08:32:56;;;;;;;59.13;25.85;;;;;;;22.51;34.91;102699.55;1615782;87;21030;-85
2021/10/30 08:35:22;;;;;;;66.35;27.00;;;;;;;20.87;37.10;102710.03;1615968;87;21011;-82
2021/10/30 08:37:49;;;;;;;60.23;25.52;;;;;;;20.05;39.02;102700.20;1604719;87;21129;-83
2021/10/30 08:40:17;;;;;;;68.40;26.52;;;;;;;19.02;40.99;102695.73;1613241;87;21155;-82
2021/10/30 08:42:48;;;;;;;59.08;24.85;;;;;;;18.22;43.33;102704.98;1601391;87;21092;-84
2021/10/30 08:45:16;;;;;;;58.65;23.70;;;;;;;17.60;44.87;102702.95;1572484;89;21122;-82
2021/10/30 08:47:47;;;;;;;66.12;24.82;;;;;;;16.96;47.44;102712.22;1583780;89;21127;-84
2021/10/30 08:50:16;;;;;;;95.00;36.23;;;;;;;16.30;50.17;102710.09;1563637;90;21700;-84
2021/10/30 08:52:42;;;;;;;86.67;32.13;;;;;;;16.03;53.35;102707.68;1559129;90;21100;-83
2021/10/30 08:55:09;;;;;;;67.47;26.65;;;;;;;15.81;57.52;102704.84;1563909;91;21552;-84
2021/10/30 08:57:35;;;;;;;66.10;25.68;;;;;;;15.52;62.09;102706.69;1565022;91;21166;-83
2021/10/30 09:00:18;;;;;;;81.30;29.72;;;;;;;15.37;65.92;102706.66;1567490;90;21041;-83
2021/10/30 09:02:44;;;;;;;71.53;29.40;;;;;;;15.08;70.86;102700.87;1541139;93;21512;-86
2021/10/30 09:05:18;;;;;;;67.92;22.95;;;;;;;15.08;70.86;102700.87;1530573;93;21093;-83
2021/10/30 09:07:46;;;;;;;50.90;20.92;;;;;;;14.96;75.17;102698.98;1530169;93;21128;-86
2021/10/30 09:10:16;;;;;;;52.93;19.75;;;;;;;14.90;77.55;102700.47;1530271;93;21184;-84
2021/10/30 09:12:53;;;;;;;49.55;17.42;;;;;;;14.89;77.83;102693.41;1530467;93;20982;-84
2021/10/30 09:15:34;;;;;;;38.85;15.10;;;;;;;14.85;77.09;102693.03;1538374;92;21113;-87
2021/10/30 09:18:02;;;;;;;42.70;14.38;;;;;;;14.89;76.30;102691.52;1539761;91;21143;-85
2021/10/30 09:20:35;;;;;;;28.20;11.38;;;;;;;14.92;75.00;102686.97;1539354;93;21108;-86
2021/10/30 09:23:01;;;;;;;34.15;13.58;;;;;;;14.86;74.19;102687.09;1490934;96;21145;-84
2021/10/30 09:25:27;;;;;;;37.20;14.93;;;;;;;14.90;74.83;102685.55;1469677;97;21911;-86
2021/10/30 09:28:01;;;;;;;38.05;14.78;;;;;;;14.95;75.42;102682.95;1488074;96;21114;-86
2021/10/30 09:30:36;;;;;;;41.83;16.25;;;;;;;14.99;75.82;102680.86;1488292;96;21077;-85
2021/10/30 09:33:05;;;;;;;47.95;16.80;;;;;;;15.04;77.42;102680.70;1488454;96;21285;-86
2021/10/30 09:35:45;;;;;;;38.23;13.95;;;;;;;15.01;77.85;102670.31;1488415;96;21120;-86
2021/10/30 09:38:31;;;;;;;25.92;10.48;;;;;;;14.87;76.20;102667.02;1458384;98;21071;-85
2021/10/30 09:41:01;;;;;;;31.27;11.88;;;;;;;14.69;73.10;102647.62;1432462;99;21121;-84
2021/10/30 09:43:27;;;;;;;24.05;8.95;;;;;;;14.74;73.43;102668.09;1407980;100;21050;-84
2021/10/30 09:45:58;;;;;;;17.12;7.20;;;;;;;14.76;70.16;102670.87;1407794;101;21111;-84
2021/10/30 09:48:27;;;;;;;18.70;7.40;;;;;;;14.77;64.37;102664.91;1400506;101;22092;-85
2021/10/30 09:50:58;;;;;;;22.05;7.85;;;;;;;14.76;63.31;102664.09;1400591;101;21173;-85
2021/10/30 09:53:34;;;;;;;24.72;8.08;;;;;;;14.80;62.71;102659.00;1400462;101;21113;-86
2021/10/30 09:56:11;;;;;;;26.57;8.90;;;;;;;14.81;62.66;102655.22;1400752;101;21057;-85
2021/10/30 09:58:46;;;;;;;24.23;8.38;;;;;;;14.83;62.60;102659.89;1434161;98;21205;-86
2021/10/30 10:01:20;;;;;;;21.42;7.30;;;;;;;14.88;61.81;102659.16;1434310;98;22009;-86
2021/10/30 10:03:48;;;;;;;20.17;7.15;;;;;;;14.82;60.96;102653.32;1433907;98;21408;-85
2021/10/30 10:06:17;;;;;;;36.23;10.82;;;;;;;14.79;60.40;102654.62;1467563;94;21158;-84
2021/10/30 10:08:49;;;;;;;19.70;7.30;;;;;;;14.72;61.02;102635.75;1499304;93;21109;-86
2021/10/30 10:11:18;;;;;;;16.32;6.95;;;;;;;14.88;59.77;102651.02;1503066;93;21121;-85
2021/10/30 10:13:48;;;;;;;19.42;7.40;;;;;;;14.91;59.90;102654.61;1491452;94;21125;-84
2021/10/30 10:16:23;;;;;;;15.05;7.15;;;;;;;14.92;59.65;102640.81;1473507;96;21083;-83
2021/10/30 10:18:53;;;;;;;15.40;7.55;;;;;;;14.84;59.15;102649.31;1481516;94;21119;-84
2021/10/30 10:21:28;;;;;;;19.90;7.80;;;;;;;14.74;58.60;102630.92;1521269;93;21423;-82
2021/10/30 10:23:59;;;;;;;13.58;6.92;;;;;;;14.83;58.06;102642.78;1521015;93;21178;-82
2021/10/30 10:26:47;;;;;;;14.25;6.35;;;;;;;14.74;58.30;102646.38;1502346;93;21167;-81
2021/10/30 10:29:33;;;;;;;16.65;7.33;;;;;;;14.70;57.75;102646.55;1522850;92;21525;-82
2021/10/30 10:32:10;;;;;;;15.25;7.17;;;;;;;14.67;57.84;102638.88;1535628;92;21060;-79
2021/10/30 10:34:39;;;;;;;14.53;6.87;;;;;;;14.67;58.05;102633.45;1529490;93;21028;-82
2021/10/30 10:37:17;;;;;;;15.00;7.37;;;;;;;14.71;58.49;102627.86;1528546;92;21083;-83
2021/10/30 10:39:47;;;;;;;17.30;7.03;;;;;;;14.76;57.83;102627.45;1555139;92;21133;-81
2021/10/30 10:42:35;;;;;;;13.72;6.65;;;;;;;14.82;58.24;102629.71;1575150;89;21481;-85
2021/10/30 10:45:10;;;;;;;15.10;6.58;;;;;;;14.82;57.25;102637.86;1580686;89;21020;-84
2021/10/30 10:47:41;;;;;;;16.65;6.45;;;;;;;14.74;57.25;102625.49;1571285;89;21132;-82
2021/10/30 10:50:34;;;;;;;19.15;7.35;;;;;;;14.76;57.93;102627.95;1567016;90;21104;-82
2021/10/30 10:53:15;;;;;;;16.05;6.15;;;;;;;14.73;58.13;102623.00;1567039;90;21164;-82
2021/10/30 10:55:52;;;;;;;14.83;6.90;;;;;;;14.79;57.95;102630.19;1563997;90;21098;-82
2021/10/30 10:58:18;;;;;;;15.23;6.72;;;;;;;14.82;57.71;102629.71;1555114;90;21529;-84
2021/10/30 11:01:07;;;;;;;17.90;6.85;;;;;;;14.85;57.67;102619.73;1528648;93;21051;-84
2021/10/30 11:03:44;;;;;;;17.55;7.42;;;;;;;14.84;57.05;102620.81;1583016;89;21096;-84
2021/10/30 11:06:10;;;;;;;19.23;8.33;;;;;;;14.85;56.78;102619.73;1537937;91;21146;-86
2021/10/30 11:08:37;;;;;;;19.37;7.37;;;;;;;14.84;57.45;102621.34;1547557;91;21082;-83